sensor_id;sensor_type;location;lat;lon;timestamp;P1;durP1;ratioP1;P2;durP2;ratioP2
13868;SDS011;7004;48.206;16.402;2023-05-10T00:01:33;5.67;;;2.83;;
13868;SDS011;7004;48.206;16.402;2023-05-10T00:04:03;3.23;;;2.93;;
13868;SDS011;7004;48.206;16.402;2023-05-10T00:06:31;3.10;;;2.70;;
13868;SDS011;7004;48.206;16.402;2023-05-10T00:09:01;3.63;;;2.40;;
13868;SDS011;7004;48.206;16.402;2023-05-10T00:11:31;3.03;;;2.77;;
13868;SDS011;7004;48.206;16.402;2023-05-10T00:14:00;3.20;;;2.60;;
13868;SDS011;7004;48.206;16.402;2023-05-10T00:16:29;4.03;;;2.90;;
13868;SDS011;7004;48.206;16.402;2023-05-10T00:18:59;3.13;;;2.50;;
13868;SDS011;7004;48.206;16.402;2023-05-10T00:21:27;3.80;;;2.67;;
13868;SDS011;7004;48.206;16.402;2023-05-10T00:23:59;3.57;;;2.70;;
13868;SDS011;7004;48.206;16.402;2023-05-10T00:26:26;2.60;;;2.40;;
13868;SDS011;7004;48.206;16.402;2023-05-10T00:28:54;3.20;;;2.43;;
13868;SDS011;7004;48.206;16.402;2023-05-10T00:31:22;4.07;;;2.73;;
13868;SDS011;7004;48.206;16.402;2023-05-10T00:33:48;2.93;;;2.57;;
13868;SDS011;7004;48.206;16.402;2023-05-10T00:36:20;2.97;;;2.40;;
13868;SDS011;7004;48.206;16.402;2023-05-10T00:38:48;3.03;;;2.63;;
13868;SDS011;7004;48.206;16.402;2023-05-10T00:41:18;3.20;;;2.70;;
13868;SDS011;7004;48.206;16.402;2023-05-10T00:43:46;3.17;;;2.67;;
13868;SDS011;7004;48.206;16.402;2023-05-10T00:46:14;4.30;;;3.00;;
13868;SDS011;7004;48.206;16.402;2023-05-10T00:48:44;4.10;;;2.97;;
13868;SDS011;7004;48.206;16.402;2023-05-10T00:51:14;3.33;;;2.70;;
13868;SDS011;7004;48.206;16.402;2023-05-10T00:53:41;4.13;;;3.10;;
13868;SDS011;7004;48.206;16.402;2023-05-10T00:56:11;3.67;;;2.73;;
13868;SDS011;7004;48.206;16.402;2023-05-10T00:58:39;3.40;;;2.73;;
13868;SDS011;7004;48.206;16.402;2023-05-10T01:01:06;3.03;;;2.73;;
13868;SDS011;7004;48.206;16.402;2023-05-10T01:03:35;4.90;;;2.90;;
13868;SDS011;7004;48.206;16.402;2023-05-10T01:06:02;3.30;;;3.00;;
13868;SDS011;7004;48.206;16.402;2023-05-10T01:08:29;5.20;;;3.00;;
13868;SDS011;7004;48.206;16.402;2023-05-10T01:10:56;3.03;;;2.60;;
13868;SDS011;7004;48.206;16.402;2023-05-10T01:13:44;3.93;;;3.07;;
13868;SDS011;7004;48.206;16.402;2023-05-10T01:16:11;3.37;;;2.97;;
13868;SDS011;7004;48.206;16.402;2023-05-10T01:18:39;2.93;;;2.67;;
13868;SDS011;7004;48.206;16.402;2023-05-10T01:27:25;3.47;;;2.87;;
13868;SDS011;7004;48.206;16.402;2023-05-10T01:36:01;4.67;;;3.33;;
13868;SDS011;7004;48.206;16.402;2023-05-10T01:38:53;4.90;;;3.10;;
13868;SDS011;7004;48.206;16.402;2023-05-10T01:44:18;3.57;;;2.90;;
13868;SDS011;7004;48.206;16.402;2023-05-10T01:48:01;4.03;;;3.13;;
13868;SDS011;7004;48.206;16.402;2023-05-10T01:50:10;3.27;;;2.73;;
13868;SDS011;7004;48.206;16.402;2023-05-10T01:52:44;4.63;;;3.07;;
13868;SDS011;7004;48.206;16.402;2023-05-10T01:55:25;3.47;;;2.87;;
13868;SDS011;7004;48.206;16.402;2023-05-10T01:58:02;3.47;;;3.07;;
13868;SDS011;7004;48.206;16.402;2023-05-10T02:00:35;4.67;;;3.33;;
13868;SDS011;7004;48.206;16.402;2023-05-10T02:03:06;4.23;;;3.33;;
13868;SDS011;7004;48.206;16.402;2023-05-10T02:05:34;3.27;;;2.97;;
13868;SDS011;7004;48.206;16.402;2023-05-10T02:08:02;3.40;;;3.10;;
13868;SDS011;7004;48.206;16.402;2023-05-10T02:10:33;3.53;;;3.07;;
13868;SDS011;7004;48.206;16.402;2023-05-10T02:13:00;4.00;;;3.13;;
13868;SDS011;7004;48.206;16.402;2023-05-10T02:15:29;3.93;;;3.30;;
13868;SDS011;7004;48.206;16.402;2023-05-10T02:17:56;3.93;;;3.23;;
13868;SDS011;7004;48.206;16.402;2023-05-10T02:20:26;4.27;;;3.47;;
13868;SDS011;7004;48.206;16.402;2023-05-10T02:22:54;8.30;;;3.60;;
13868;SDS011;7004;48.206;16.402;2023-05-10T02:25:23;6.50;;;3.93;;
13868;SDS011;7004;48.206;16.402;2023-05-10T02:27:51;5.23;;;3.80;;
13868;SDS011;7004;48.206;16.402;2023-05-10T02:30:22;4.17;;;3.50;;
13868;SDS011;7004;48.206;16.402;2023-05-10T02:32:50;3.97;;;3.13;;
13868;SDS011;7004;48.206;16.402;2023-05-10T02:35:18;4.93;;;3.70;;
13868;SDS011;7004;48.206;16.402;2023-05-10T02:37:45;4.27;;;3.40;;
13868;SDS011;7004;48.206;16.402;2023-05-10T02:40:13;7.40;;;4.20;;
13868;SDS011;7004;48.206;16.402;2023-05-10T02:42:42;4.60;;;3.90;;
13868;SDS011;7004;48.206;16.402;2023-05-10T02:45:12;4.80;;;3.70;;
13868;SDS011;7004;48.206;16.402;2023-05-10T02:47:40;6.23;;;3.90;;
13868;SDS011;7004;48.206;16.402;2023-05-10T02:50:06;4.57;;;3.33;;
13868;SDS011;7004;48.206;16.402;2023-05-10T02:52:38;6.00;;;3.33;;
13868;SDS011;7004;48.206;16.402;2023-05-10T02:55:09;4.20;;;3.70;;
13868;SDS011;7004;48.206;16.402;2023-05-10T02:57:41;5.90;;;3.83;;
13868;SDS011;7004;48.206;16.402;2023-05-10T03:00:16;4.80;;;3.90;;
13868;SDS011;7004;48.206;16.402;2023-05-10T03:02:42;5.07;;;3.50;;
13868;SDS011;7004;48.206;16.402;2023-05-10T03:05:09;4.83;;;3.93;;
13868;SDS011;7004;48.206;16.402;2023-05-10T03:07:35;4.60;;;3.33;;
13868;SDS011;7004;48.206;16.402;2023-05-10T03:10:01;5.00;;;3.27;;
13868;SDS011;7004;48.206;16.402;2023-05-10T03:18:22;5.63;;;3.80;;
13868;SDS011;7004;48.206;16.402;2023-05-10T03:21:13;3.83;;;3.37;;
13868;SDS011;7004;48.206;16.402;2023-05-10T03:23:52;3.83;;;3.43;;
13868;SDS011;7004;48.206;16.402;2023-05-10T03:26:32;5.93;;;3.50;;
13868;SDS011;7004;48.206;16.402;2023-05-10T03:28:59;4.97;;;3.70;;
13868;SDS011;7004;48.206;16.402;2023-05-10T03:31:26;4.13;;;3.37;;
13868;SDS011;7004;48.206;16.402;2023-05-10T03:33:53;4.80;;;3.57;;
13868;SDS011;7004;48.206;16.402;2023-05-10T03:36:19;4.63;;;3.50;;
13868;SDS011;7004;48.206;16.402;2023-05-10T03:38:45;4.50;;;3.60;;
13868;SDS011;7004;48.206;16.402;2023-05-10T03:41:11;3.73;;;3.37;;
13868;SDS011;7004;48.206;16.402;2023-05-10T03:43:37;4.43;;;4.03;;
13868;SDS011;7004;48.206;16.402;2023-05-10T03:46:04;5.17;;;3.60;;
13868;SDS011;7004;48.206;16.402;2023-05-10T03:48:34;5.70;;;3.87;;
13868;SDS011;7004;48.206;16.402;2023-05-10T03:51:00;4.47;;;3.67;;
13868;SDS011;7004;48.206;16.402;2023-05-10T03:53:26;4.67;;;3.70;;
13868;SDS011;7004;48.206;16.402;2023-05-10T03:55:52;4.73;;;3.80;;
13868;SDS011;7004;48.206;16.402;2023-05-10T03:58:18;5.30;;;3.70;;
13868;SDS011;7004;48.206;16.402;2023-05-10T04:00:45;5.63;;;3.57;;
13868;SDS011;7004;48.206;16.402;2023-05-10T04:03:11;4.17;;;3.53;;
13868;SDS011;7004;48.206;16.402;2023-05-10T04:05:38;5.30;;;3.90;;
13868;SDS011;7004;48.206;16.402;2023-05-10T04:08:04;5.20;;;3.50;;
13868;SDS011;7004;48.206;16.402;2023-05-10T04:10:31;4.53;;;3.40;;
13868;SDS011;7004;48.206;16.402;2023-05-10T04:12:57;4.40;;;3.80;;
13868;SDS011;7004;48.206;16.402;2023-05-10T04:15:24;4.67;;;3.53;;
13868;SDS011;7004;48.206;16.402;2023-05-10T04:17:50;6.77;;;3.83;;
13868;SDS011;7004;48.206;16.402;2023-05-10T04:20:16;5.17;;;3.83;;
13868;SDS011;7004;48.206;16.402;2023-05-10T04:22:42;5.13;;;3.40;;
13868;SDS011;7004;48.206;16.402;2023-05-10T04:25:08;6.00;;;3.97;;
13868;SDS011;7004;48.206;16.402;2023-05-10T04:27:35;4.50;;;3.57;;
13868;SDS011;7004;48.206;16.402;2023-05-10T04:30:01;5.97;;;3.80;;
13868;SDS011;7004;48.206;16.402;2023-05-10T04:32:27;5.33;;;4.20;;
13868;SDS011;7004;48.206;16.402;2023-05-10T04:34:53;4.23;;;3.83;;
13868;SDS011;7004;48.206;16.402;2023-05-10T04:37:19;5.20;;;3.70;;
13868;SDS011;7004;48.206;16.402;2023-05-10T04:39:46;4.87;;;4.07;;
13868;SDS011;7004;48.206;16.402;2023-05-10T04:42:12;6.40;;;3.87;;
13868;SDS011;7004;48.206;16.402;2023-05-10T04:44:40;5.00;;;3.87;;
13868;SDS011;7004;48.206;16.402;2023-05-10T04:47:06;6.33;;;4.50;;
13868;SDS011;7004;48.206;16.402;2023-05-10T04:49:33;5.80;;;4.60;;
13868;SDS011;7004;48.206;16.402;2023-05-10T04:51:59;6.43;;;4.27;;
13868;SDS011;7004;48.206;16.402;2023-05-10T04:54:26;4.67;;;3.80;;
13868;SDS011;7004;48.206;16.402;2023-05-10T04:56:52;7.17;;;3.90;;
13868;SDS011;7004;48.206;16.402;2023-05-10T04:59:18;6.23;;;3.77;;
13868;SDS011;7004;48.206;16.402;2023-05-10T05:01:44;4.70;;;4.07;;
13868;SDS011;7004;48.206;16.402;2023-05-10T05:04:10;5.60;;;4.23;;
13868;SDS011;7004;48.206;16.402;2023-05-10T05:06:36;4.67;;;4.13;;
13868;SDS011;7004;48.206;16.402;2023-05-10T05:09:03;4.73;;;4.10;;
13868;SDS011;7004;48.206;16.402;2023-05-10T05:11:29;6.57;;;4.10;;
13868;SDS011;7004;48.206;16.402;2023-05-10T05:13:55;6.70;;;4.53;;
13868;SDS011;7004;48.206;16.402;2023-05-10T05:16:21;6.93;;;4.17;;
13868;SDS011;7004;48.206;16.402;2023-05-10T05:18:47;5.07;;;4.50;;
13868;SDS011;7004;48.206;16.402;2023-05-10T05:21:13;5.27;;;4.23;;
13868;SDS011;7004;48.206;16.402;2023-05-10T05:23:45;7.10;;;4.50;;
13868;SDS011;7004;48.206;16.402;2023-05-10T05:26:12;6.47;;;4.47;;
13868;SDS011;7004;48.206;16.402;2023-05-10T05:28:38;5.53;;;4.27;;
13868;SDS011;7004;48.206;16.402;2023-05-10T05:31:04;4.67;;;4.13;;
13868;SDS011;7004;48.206;16.402;2023-05-10T05:33:31;4.87;;;4.10;;
13868;SDS011;7004;48.206;16.402;2023-05-10T05:35:57;5.37;;;4.30;;
13868;SDS011;7004;48.206;16.402;2023-05-10T05:38:25;6.60;;;4.80;;
13868;SDS011;7004;48.206;16.402;2023-05-10T05:40:52;6.13;;;4.43;;
13868;SDS011;7004;48.206;16.402;2023-05-10T05:43:18;6.90;;;4.60;;
13868;SDS011;7004;48.206;16.402;2023-05-10T05:45:44;5.43;;;4.33;;
13868;SDS011;7004;48.206;16.402;2023-05-10T05:48:10;5.40;;;3.93;;
13868;SDS011;7004;48.206;16.402;2023-05-10T05:50:36;6.70;;;4.70;;
13868;SDS011;7004;48.206;16.402;2023-05-10T05:53:02;4.77;;;3.90;;
13868;SDS011;7004;48.206;16.402;2023-05-10T05:55:28;7.67;;;4.10;;
13868;SDS011;7004;48.206;16.402;2023-05-10T05:57:57;4.30;;;3.67;;
13868;SDS011;7004;48.206;16.402;2023-05-10T06:00:23;4.77;;;3.77;;
13868;SDS011;7004;48.206;16.402;2023-05-10T06:02:49;7.17;;;4.80;;
13868;SDS011;7004;48.206;16.402;2023-05-10T06:05:15;5.93;;;4.47;;
13868;SDS011;7004;48.206;16.402;2023-05-10T06:07:42;4.30;;;3.57;;
13868;SDS011;7004;48.206;16.402;2023-05-10T06:10:08;6.27;;;4.70;;
13868;SDS011;7004;48.206;16.402;2023-05-10T06:12:35;5.60;;;4.40;;
13868;SDS011;7004;48.206;16.402;2023-05-10T06:15:02;5.83;;;4.10;;
13868;SDS011;7004;48.206;16.402;2023-05-10T06:17:29;6.20;;;4.23;;
13868;SDS011;7004;48.206;16.402;2023-05-10T06:19:55;5.60;;;4.13;;
13868;SDS011;7004;48.206;16.402;2023-05-10T06:22:21;5.60;;;4.10;;
13868;SDS011;7004;48.206;16.402;2023-05-10T06:24:48;6.10;;;4.03;;
13868;SDS011;7004;48.206;16.402;2023-05-10T06:27:15;4.37;;;3.60;;
13868;SDS011;7004;48.206;16.402;2023-05-10T06:29:41;5.70;;;4.40;;
13868;SDS011;7004;48.206;16.402;2023-05-10T06:32:07;5.23;;;4.57;;
13868;SDS011;7004;48.206;16.402;2023-05-10T06:34:33;5.40;;;4.10;;
13868;SDS011;7004;48.206;16.402;2023-05-10T06:36:59;4.83;;;3.97;;
13868;SDS011;7004;48.206;16.402;2023-05-10T06:39:25;5.67;;;4.17;;
13868;SDS011;7004;48.206;16.402;2023-05-10T06:41:51;5.47;;;4.20;;
13868;SDS011;7004;48.206;16.402;2023-05-10T06:44:17;4.70;;;3.63;;
13868;SDS011;7004;48.206;16.402;2023-05-10T06:46:43;7.77;;;4.03;;
13868;SDS011;7004;48.206;16.402;2023-05-10T06:49:09;4.43;;;4.00;;
13868;SDS011;7004;48.206;16.402;2023-05-10T06:51:35;5.17;;;3.90;;
13868;SDS011;7004;48.206;16.402;2023-05-10T06:54:01;5.43;;;3.87;;
13868;SDS011;7004;48.206;16.402;2023-05-10T06:56:28;6.20;;;3.97;;
13868;SDS011;7004;48.206;16.402;2023-05-10T06:58:54;4.33;;;3.93;;
13868;SDS011;7004;48.206;16.402;2023-05-10T07:01:20;7.00;;;4.03;;
13868;SDS011;7004;48.206;16.402;2023-05-10T07:03:46;4.63;;;3.33;;
13868;SDS011;7004;48.206;16.402;2023-05-10T07:06:12;5.33;;;3.70;;
13868;SDS011;7004;48.206;16.402;2023-05-10T07:08:38;4.40;;;3.73;;
13868;SDS011;7004;48.206;16.402;2023-05-10T07:11:05;5.53;;;4.13;;
13868;SDS011;7004;48.206;16.402;2023-05-10T07:13:35;5.03;;;3.93;;
13868;SDS011;7004;48.206;16.402;2023-05-10T07:16:01;4.47;;;3.60;;
13868;SDS011;7004;48.206;16.402;2023-05-10T07:18:28;5.80;;;4.37;;
13868;SDS011;7004;48.206;16.402;2023-05-10T07:20:54;7.13;;;4.13;;
13868;SDS011;7004;48.206;16.402;2023-05-10T07:23:20;6.87;;;4.33;;
13868;SDS011;7004;48.206;16.402;2023-05-10T07:25:47;5.07;;;3.90;;
13868;SDS011;7004;48.206;16.402;2023-05-10T07:28:14;4.93;;;4.10;;
13868;SDS011;7004;48.206;16.402;2023-05-10T07:30:41;4.17;;;3.77;;
13868;SDS011;7004;48.206;16.402;2023-05-10T07:33:08;6.17;;;4.30;;
13868;SDS011;7004;48.206;16.402;2023-05-10T07:35:36;6.67;;;4.20;;
13868;SDS011;7004;48.206;16.402;2023-05-10T07:38:02;4.60;;;3.93;;
13868;SDS011;7004;48.206;16.402;2023-05-10T07:40:30;5.23;;;4.10;;
13868;SDS011;7004;48.206;16.402;2023-05-10T07:42:57;5.77;;;4.50;;
13868;SDS011;7004;48.206;16.402;2023-05-10T07:45:23;4.90;;;4.10;;
13868;SDS011;7004;48.206;16.402;2023-05-10T07:47:49;5.10;;;4.50;;
13868;SDS011;7004;48.206;16.402;2023-05-10T07:50:16;5.80;;;5.00;;
13868;SDS011;7004;48.206;16.402;2023-05-10T07:52:42;5.10;;;4.07;;
13868;SDS011;7004;48.206;16.402;2023-05-10T07:55:08;6.17;;;4.73;;
13868;SDS011;7004;48.206;16.402;2023-05-10T07:57:35;5.40;;;4.43;;
13868;SDS011;7004;48.206;16.402;2023-05-10T08:00:02;5.20;;;4.53;;
13868;SDS011;7004;48.206;16.402;2023-05-10T08:02:28;6.00;;;4.40;;
13868;SDS011;7004;48.206;16.402;2023-05-10T08:04:54;8.03;;;5.00;;
13868;SDS011;7004;48.206;16.402;2023-05-10T08:07:21;5.80;;;4.73;;
13868;SDS011;7004;48.206;16.402;2023-05-10T08:09:48;5.10;;;4.60;;
13868;SDS011;7004;48.206;16.402;2023-05-10T08:12:14;4.73;;;4.17;;
13868;SDS011;7004;48.206;16.402;2023-05-10T08:14:40;5.47;;;4.40;;
13868;SDS011;7004;48.206;16.402;2023-05-10T08:17:06;4.77;;;4.30;;
13868;SDS011;7004;48.206;16.402;2023-05-10T08:19:32;5.80;;;4.47;;
13868;SDS011;7004;48.206;16.402;2023-05-10T08:21:58;7.07;;;3.93;;
13868;SDS011;7004;48.206;16.402;2023-05-10T08:24:25;5.97;;;4.30;;
13868;SDS011;7004;48.206;16.402;2023-05-10T08:26:51;3.73;;;3.43;;
13868;SDS011;7004;48.206;16.402;2023-05-10T08:29:17;5.37;;;3.93;;
13868;SDS011;7004;48.206;16.402;2023-05-10T08:31:44;3.37;;;3.03;;
13868;SDS011;7004;48.206;16.402;2023-05-10T08:34:10;3.87;;;3.53;;
13868;SDS011;7004;48.206;16.402;2023-05-10T08:36:36;4.47;;;3.30;;
13868;SDS011;7004;48.206;16.402;2023-05-10T08:39:02;4.30;;;3.00;;
13868;SDS011;7004;48.206;16.402;2023-05-10T08:41:28;3.73;;;3.40;;
13868;SDS011;7004;48.206;16.402;2023-05-10T08:43:58;3.70;;;3.23;;
13868;SDS011;7004;48.206;16.402;2023-05-10T08:46:29;3.10;;;2.73;;
13868;SDS011;7004;48.206;16.402;2023-05-10T08:48:58;4.13;;;3.23;;
13868;SDS011;7004;48.206;16.402;2023-05-10T08:51:29;3.67;;;2.83;;
13868;SDS011;7004;48.206;16.402;2023-05-10T08:54:01;3.23;;;2.93;;
13868;SDS011;7004;48.206;16.402;2023-05-10T08:56:29;3.13;;;2.83;;
13868;SDS011;7004;48.206;16.402;2023-05-10T08:58:55;4.03;;;3.30;;
13868;SDS011;7004;48.206;16.402;2023-05-10T09:01:22;3.60;;;3.20;;
13868;SDS011;7004;48.206;16.402;2023-05-10T09:03:49;3.10;;;2.80;;
13868;SDS011;7004;48.206;16.402;2023-05-10T09:06:16;3.33;;;3.03;;
13868;SDS011;7004;48.206;16.402;2023-05-10T09:08:43;2.50;;;2.30;;
13868;SDS011;7004;48.206;16.402;2023-05-10T09:11:09;2.63;;;2.23;;
13868;SDS011;7004;48.206;16.402;2023-05-10T09:13:37;3.47;;;2.57;;
13868;SDS011;7004;48.206;16.402;2023-05-10T09:16:04;2.40;;;2.20;;
13868;SDS011;7004;48.206;16.402;2023-05-10T09:18:30;3.00;;;2.47;;
13868;SDS011;7004;48.206;16.402;2023-05-10T09:20:56;3.10;;;2.30;;
13868;SDS011;7004;48.206;16.402;2023-05-10T09:23:22;5.50;;;2.20;;
13868;SDS011;7004;48.206;16.402;2023-05-10T09:26:05;2.23;;;2.03;;
13868;SDS011;7004;48.206;16.402;2023-05-10T09:31:21;2.13;;;1.93;;
13868;SDS011;7004;48.206;16.402;2023-05-10T09:33:48;2.10;;;1.90;;
13868;SDS011;7004;48.206;16.402;2023-05-10T09:36:15;4.27;;;2.07;;
13868;SDS011;7004;48.206;16.402;2023-05-10T09:38:45;1.87;;;1.60;;
13868;SDS011;7004;48.206;16.402;2023-05-10T09:41:20;1.83;;;1.70;;
13868;SDS011;7004;48.206;16.402;2023-05-10T09:43:48;1.73;;;1.60;;
13868;SDS011;7004;48.206;16.402;2023-05-10T09:46:16;1.73;;;1.63;;
13868;SDS011;7004;48.206;16.402;2023-05-10T09:48:46;1.70;;;1.60;;
13868;SDS011;7004;48.206;16.402;2023-05-10T09:53:46;1.83;;;1.73;;
13868;SDS011;7004;48.206;16.402;2023-05-10T09:56:34;1.70;;;1.60;;
13868;SDS011;7004;48.206;16.402;2023-05-10T09:59:02;1.53;;;1.37;;
13868;SDS011;7004;48.206;16.402;2023-05-10T10:01:29;1.60;;;1.50;;
13868;SDS011;7004;48.206;16.402;2023-05-10T10:03:56;1.57;;;1.47;;
13868;SDS011;7004;48.206;16.402;2023-05-10T10:06:25;1.50;;;1.40;;
13868;SDS011;7004;48.206;16.402;2023-05-10T10:08:51;1.80;;;1.60;;
13868;SDS011;7004;48.206;16.402;2023-05-10T10:11:19;2.53;;;1.60;;
13868;SDS011;7004;48.206;16.402;2023-05-10T10:13:45;2.13;;;1.77;;
13868;SDS011;7004;48.206;16.402;2023-05-10T10:16:12;1.53;;;1.43;;
13868;SDS011;7004;48.206;16.402;2023-05-10T10:18:38;1.80;;;1.70;;
13868;SDS011;7004;48.206;16.402;2023-05-10T10:21:07;1.63;;;1.43;;
13868;SDS011;7004;48.206;16.402;2023-05-10T10:23:37;1.60;;;1.50;;
13868;SDS011;7004;48.206;16.402;2023-05-10T10:26:03;1.83;;;1.50;;
13868;SDS011;7004;48.206;16.402;2023-05-10T10:31:55;1.70;;;1.60;;
13868;SDS011;7004;48.206;16.402;2023-05-10T10:35:11;1.73;;;1.60;;
13868;SDS011;7004;48.206;16.402;2023-05-10T10:37:43;1.97;;;1.83;;
13868;SDS011;7004;48.206;16.402;2023-05-10T10:40:27;1.67;;;1.40;;
13868;SDS011;7004;48.206;16.402;2023-05-10T10:42:58;3.17;;;1.70;;
13868;SDS011;7004;48.206;16.402;2023-05-10T10:46:09;1.70;;;1.60;;
13868;SDS011;7004;48.206;16.402;2023-05-10T10:48:36;2.57;;;1.60;;
13868;SDS011;7004;48.206;16.402;2023-05-10T10:51:02;3.80;;;1.60;;
13868;SDS011;7004;48.206;16.402;2023-05-10T10:53:30;1.97;;;1.40;;
13868;SDS011;7004;48.206;16.402;2023-05-10T10:56:07;1.70;;;1.60;;
13868;SDS011;7004;48.206;16.402;2023-05-10T10:58:40;2.07;;;1.87;;
13868;SDS011;7004;48.206;16.402;2023-05-10T11:01:15;1.67;;;1.57;;
13868;SDS011;7004;48.206;16.402;2023-05-10T11:06:30;3.40;;;2.07;;
13868;SDS011;7004;48.206;16.402;2023-05-10T11:09:09;1.67;;;1.57;;
13868;SDS011;7004;48.206;16.402;2023-05-10T11:11:48;1.90;;;1.80;;
13868;SDS011;7004;48.206;16.402;2023-05-10T11:14:19;1.90;;;1.80;;
13868;SDS011;7004;48.206;16.402;2023-05-10T11:16:47;2.43;;;1.80;;
13868;SDS011;7004;48.206;16.402;2023-05-10T11:19:14;1.90;;;1.80;;
13868;SDS011;7004;48.206;16.402;2023-05-10T11:21:46;1.97;;;1.83;;
13868;SDS011;7004;48.206;16.402;2023-05-10T11:24:36;1.80;;;1.70;;
13868;SDS011;7004;48.206;16.402;2023-05-10T11:27:02;3.63;;;1.80;;
13868;SDS011;7004;48.206;16.402;2023-05-10T11:29:28;2.80;;;1.77;;
13868;SDS011;7004;48.206;16.402;2023-05-10T11:31:58;1.90;;;1.63;;
13868;SDS011;7004;48.206;16.402;2023-05-10T11:34:26;1.87;;;1.70;;
13868;SDS011;7004;48.206;16.402;2023-05-10T11:36:59;1.77;;;1.67;;
13868;SDS011;7004;48.206;16.402;2023-05-10T11:39:26;1.90;;;1.80;;
13868;SDS011;7004;48.206;16.402;2023-05-10T11:41:57;2.23;;;2.13;;
13868;SDS011;7004;48.206;16.402;2023-05-10T11:44:32;1.80;;;1.70;;
13868;SDS011;7004;48.206;16.402;2023-05-10T11:46:59;2.07;;;1.87;;
13868;SDS011;7004;48.206;16.402;2023-05-10T11:49:26;2.60;;;1.50;;
13868;SDS011;7004;48.206;16.402;2023-05-10T11:51:52;1.70;;;1.60;;
13868;SDS011;7004;48.206;16.402;2023-05-10T11:54:18;1.87;;;1.77;;
13868;SDS011;7004;48.206;16.402;2023-05-10T11:56:46;2.17;;;1.97;;
13868;SDS011;7004;48.206;16.402;2023-05-10T11:59:13;1.90;;;1.80;;
13868;SDS011;7004;48.206;16.402;2023-05-10T12:01:40;1.73;;;1.63;;
13868;SDS011;7004;48.206;16.402;2023-05-10T12:04:06;1.47;;;1.37;;
13868;SDS011;7004;48.206;16.402;2023-05-10T12:06:36;2.50;;;1.93;;
13868;SDS011;7004;48.206;16.402;2023-05-10T12:09:06;2.13;;;1.90;;
13868;SDS011;7004;48.206;16.402;2023-05-10T12:11:37;1.47;;;1.37;;
13868;SDS011;7004;48.206;16.402;2023-05-10T12:14:08;1.77;;;1.67;;
13868;SDS011;7004;48.206;16.402;2023-05-10T12:16:35;1.77;;;1.67;;
13868;SDS011;7004;48.206;16.402;2023-05-10T12:19:01;1.87;;;1.63;;
13868;SDS011;7004;48.206;16.402;2023-05-10T12:21:28;1.80;;;1.70;;
13868;SDS011;7004;48.206;16.402;2023-05-10T12:23:59;1.77;;;1.67;;
13868;SDS011;7004;48.206;16.402;2023-05-10T12:26:29;1.60;;;1.50;;
13868;SDS011;7004;48.206;16.402;2023-05-10T12:29:01;1.90;;;1.70;;
13868;SDS011;7004;48.206;16.402;2023-05-10T12:31:55;1.90;;;1.70;;
13868;SDS011;7004;48.206;16.402;2023-05-10T12:34:25;2.10;;;1.93;;
13868;SDS011;7004;48.206;16.402;2023-05-10T12:37:03;5.27;;;3.80;;
13868;SDS011;7004;48.206;16.402;2023-05-10T12:39:43;1.90;;;1.80;;
13868;SDS011;7004;48.206;16.402;2023-05-10T12:42:11;2.50;;;2.30;;
13868;SDS011;7004;48.206;16.402;2023-05-10T12:44:40;2.47;;;2.03;;
13868;SDS011;7004;48.206;16.402;2023-05-10T12:47:06;2.27;;;2.07;;
13868;SDS011;7004;48.206;16.402;2023-05-10T12:49:32;2.07;;;1.90;;
13868;SDS011;7004;48.206;16.402;2023-05-10T12:51:59;2.10;;;1.90;;
13868;SDS011;7004;48.206;16.402;2023-05-10T12:54:25;2.33;;;2.03;;
13868;SDS011;7004;48.206;16.402;2023-05-10T12:56:51;1.90;;;1.80;;
13868;SDS011;7004;48.206;16.402;2023-05-10T12:59:17;2.10;;;1.90;;
13868;SDS011;7004;48.206;16.402;2023-05-10T13:01:43;2.33;;;2.13;;
13868;SDS011;7004;48.206;16.402;2023-05-10T13:04:09;2.03;;;1.93;;
13868;SDS011;7004;48.206;16.402;2023-05-10T13:06:35;2.43;;;2.23;;
13868;SDS011;7004;48.206;16.402;2023-05-10T13:09:01;2.60;;;2.40;;
13868;SDS011;7004;48.206;16.402;2023-05-10T13:11:28;2.50;;;2.30;;
13868;SDS011;7004;48.206;16.402;2023-05-10T13:13:55;2.50;;;2.30;;
13868;SDS011;7004;48.206;16.402;2023-05-10T13:16:21;2.33;;;2.10;;
13868;SDS011;7004;48.206;16.402;2023-05-10T13:18:47;4.30;;;2.77;;
13868;SDS011;7004;48.206;16.402;2023-05-10T13:21:13;3.37;;;3.17;;
13868;SDS011;7004;48.206;16.402;2023-05-10T13:23:39;3.40;;;2.67;;
13868;SDS011;7004;48.206;16.402;2023-05-10T13:26:06;2.80;;;2.60;;
13868;SDS011;7004;48.206;16.402;2023-05-10T13:28:31;3.90;;;2.60;;
13868;SDS011;7004;48.206;16.402;2023-05-10T13:30:57;2.40;;;2.30;;
13868;SDS011;7004;48.206;16.402;2023-05-10T13:33:25;2.77;;;2.40;;
13868;SDS011;7004;48.206;16.402;2023-05-10T13:35:51;2.60;;;2.40;;
13868;SDS011;7004;48.206;16.402;2023-05-10T13:38:17;2.70;;;2.50;;
13868;SDS011;7004;48.206;16.402;2023-05-10T13:40:43;2.73;;;2.47;;
13868;SDS011;7004;48.206;16.402;2023-05-10T13:43:09;2.50;;;2.30;;
13868;SDS011;7004;48.206;16.402;2023-05-10T13:45:36;2.40;;;2.20;;
13868;SDS011;7004;48.206;16.402;2023-05-10T13:48:02;2.17;;;1.97;;
13868;SDS011;7004;48.206;16.402;2023-05-10T13:50:28;2.60;;;2.40;;
13868;SDS011;7004;48.206;16.402;2023-05-10T13:52:55;2.50;;;2.30;;
13868;SDS011;7004;48.206;16.402;2023-05-10T13:55:21;2.10;;;2.00;;
13868;SDS011;7004;48.206;16.402;2023-05-10T13:57:48;2.50;;;2.03;;
13868;SDS011;7004;48.206;16.402;2023-05-10T14:00:14;2.40;;;2.20;;
13868;SDS011;7004;48.206;16.402;2023-05-10T14:02:41;2.60;;;2.40;;
13868;SDS011;7004;48.206;16.402;2023-05-10T14:05:07;2.30;;;2.10;;
13868;SDS011;7004;48.206;16.402;2023-05-10T14:07:33;2.37;;;2.17;;
13868;SDS011;7004;48.206;16.402;2023-05-10T14:10:00;2.57;;;2.37;;
13868;SDS011;7004;48.206;16.402;2023-05-10T14:12:26;2.20;;;2.10;;
13868;SDS011;7004;48.206;16.402;2023-05-10T14:14:52;2.47;;;2.27;;
13868;SDS011;7004;48.206;16.402;2023-05-10T14:17:18;2.30;;;2.10;;
13868;SDS011;7004;48.206;16.402;2023-05-10T14:19:44;1.97;;;1.87;;
13868;SDS011;7004;48.206;16.402;2023-05-10T14:22:11;2.37;;;2.17;;
13868;SDS011;7004;48.206;16.402;2023-05-10T14:24:37;2.77;;;2.23;;
13868;SDS011;7004;48.206;16.402;2023-05-10T14:27:04;2.27;;;1.97;;
13868;SDS011;7004;48.206;16.402;2023-05-10T14:29:31;2.13;;;2.00;;
13868;SDS011;7004;48.206;16.402;2023-05-10T14:32:05;4.23;;;2.17;;
13868;SDS011;7004;48.206;16.402;2023-05-10T14:34:32;1.87;;;1.77;;
13868;SDS011;7004;48.206;16.402;2023-05-10T14:36:59;1.73;;;1.63;;
13868;SDS011;7004;48.206;16.402;2023-05-10T14:39:25;2.13;;;1.80;;
13868;SDS011;7004;48.206;16.402;2023-05-10T14:41:54;1.80;;;1.70;;
13868;SDS011;7004;48.206;16.402;2023-05-10T14:44:21;2.17;;;1.97;;
13868;SDS011;7004;48.206;16.402;2023-05-10T14:46:47;2.00;;;1.90;;
13868;SDS011;7004;48.206;16.402;2023-05-10T14:49:15;2.50;;;2.00;;
13868;SDS011;7004;48.206;16.402;2023-05-10T14:51:41;1.97;;;1.87;;
13868;SDS011;7004;48.206;16.402;2023-05-10T14:54:07;2.10;;;1.90;;
13868;SDS011;7004;48.206;16.402;2023-05-10T14:56:33;2.17;;;1.97;;
13868;SDS011;7004;48.206;16.402;2023-05-10T14:58:59;1.93;;;1.80;;
13868;SDS011;7004;48.206;16.402;2023-05-10T15:01:25;2.80;;;1.77;;
13868;SDS011;7004;48.206;16.402;2023-05-10T15:03:52;2.10;;;1.70;;
13868;SDS011;7004;48.206;16.402;2023-05-10T15:06:22;2.60;;;1.70;;
13868;SDS011;7004;48.206;16.402;2023-05-10T15:08:55;1.80;;;1.70;;
13868;SDS011;7004;48.206;16.402;2023-05-10T15:11:21;2.77;;;1.90;;
13868;SDS011;7004;48.206;16.402;2023-05-10T15:13:48;2.00;;;1.80;;
13868;SDS011;7004;48.206;16.402;2023-05-10T15:16:14;1.57;;;1.40;;
13868;SDS011;7004;48.206;16.402;2023-05-10T15:18:40;1.87;;;1.77;;
13868;SDS011;7004;48.206;16.402;2023-05-10T15:21:06;2.13;;;1.93;;
13868;SDS011;7004;48.206;16.402;2023-05-10T15:23:32;1.60;;;1.50;;
13868;SDS011;7004;48.206;16.402;2023-05-10T15:26:00;2.03;;;1.60;;
13868;SDS011;7004;48.206;16.402;2023-05-10T15:28:28;1.50;;;1.40;;